Time;durP1;ratioP1;P1;durP2;ratioP2;P2;SDS_P1;SDS_P2;PMS_P1;PMS_P2;Temp;Humidity;BMP_temperature;BMP_pressure;BME280_temperature;BME280_humidity;BME280_pressure;Samples;Min_cycle;Max_cycle;Signal;HPM_P1;HPM_P2
2023/12/13 00:01:29;;;;;;;;;;;;;;;7.60;100.00;99170.22;5073140;28;19983;-90
2023/12/13 00:03:55;;;;;;;;;;;;;;;7.60;100.00;99173.66;5066424;28;20303;-88
2023/12/13 00:06:21;;;;;;;;;;;;;;;7.62;100.00;99174.31;5041880;28;19917;-90
2023/12/13 00:08:46;;;;;;;;;;;;;;;7.59;100.00;99192.22;5046842;28;20416;-88
2023/12/13 00:11:15;;;;;;;;;;;;;;;7.61;100.00;99192.88;5036882;28;19920;-96
2023/12/13 00:14:29;;;;;;;;;;;;;;;7.61;100.00;99198.16;5057818;28;19929;-96
2023/12/13 00:17:02;;;;;;;;;;;;;;;7.61;100.00;99198.16;5057747;28;19961;-96
2023/12/13 00:19:29;;;;;;;;;;;;;;;7.61;100.00;99209.50;5058202;28;20121;-95
2023/12/13 00:21:55;;;;;;;;;;;;;;;7.60;100.00;99210.47;5044268;28;19920;-96
2023/12/13 00:24:25;;;;;;;;;;;;;;;7.61;100.00;99219.19;5062209;28;19921;-95
2023/12/13 00:26:54;;;;;;;;;;;;;;;7.60;100.00;99215.72;5080387;28;19916;-96
2023/12/13 00:29:30;;;;;;;;;;;;;;;7.57;100.00;99216.88;5066432;28;19916;-96
2023/12/13 00:31:58;;;;;;;;;;;;;;;7.60;100.00;99217.53;5079266;28;19916;-96
2023/12/13 00:34:26;;;;;;;;;;;;;;;7.57;100.00;99226.56;5043988;28;19916;-96
2023/12/13 00:36:52;;;;;;;;;;;;;;;7.57;100.00;99216.88;5043130;28;19917;-96
2023/12/13 00:39:20;;;;;;;;;;;;;;;7.59;100.00;99226.41;5062416;28;19923;-95
2023/12/13 00:41:46;;;;;;;;;;;;;;;7.57;100.00;99231.81;5060626;28;19925;-96
2023/12/13 00:44:12;;;;;;;;;;;;;;;7.56;100.00;99236.22;5042827;28;20394;-96
2023/12/13 00:46:39;;;;;;;;;;;;;;;7.59;100.00;99237.75;5073739;28;20452;-96
2023/12/13 00:49:05;;;;;;;;;;;;;;;7.57;100.00;99245.78;5073243;28;19923;-96
2023/12/13 00:51:34;;;;;;;;;;;;;;;7.53;100.00;99235.75;5039957;28;20001;-96
2023/12/13 00:54:00;;;;;;;;;;;;;;;7.52;100.00;99244.59;5078487;28;19916;-95
2023/12/13 00:56:28;;;;;;;;;;;;;;;7.51;100.00;99250.84;5048013;28;20018;-96
2023/12/13 00:58:54;;;;;;;;;;;;;;;7.50;100.00;99259.72;5061971;28;20379;-96
2023/12/13 01:01:19;;;;;;;;;;;;;;;7.48;100.00;99251.16;5052753;28;19987;-95
2023/12/13 01:03:45;;;;;;;;;;;;;;;7.47;100.00;99249.50;5045352;28;20242;-96
2023/12/13 01:06:15;;;;;;;;;;;;;;;7.44;100.00;99255.88;5049886;28;19916;-95
2023/12/13 01:08:44;;;;;;;;;;;;;;;7.43;100.00;99262.13;5061149;28;19921;-96
2023/12/13 01:11:24;;;;;;;;;;;;;;;;;;;;;
2023/12/13 01:14:05;;;;;;;;;;;;;;;7.41;100.00;99266.69;5078890;28;19916;-96
2023/12/13 01:16:37;;;;;;;;;;;;;;;7.38;100.00;99272.25;5047461;28;19923;-96
2023/12/13 01:19:50;;;;;;;;;;;;;;;7.36;100.00;99282.13;5065892;28;20016;-96
2023/12/13 01:22:28;;;;;;;;;;;;;;;7.34;100.00;99284.91;5063929;28;19929;-95
2023/12/13 01:25:02;;;;;;;;;;;;;;;7.35;100.00;99280.44;5080230;28;19951;-96
2023/12/13 01:30:20;;;;;;;;;;;;;;;7.32;100.00;99285.06;5068023;28;19916;-96
2023/12/13 01:33:05;;;;;;;;;;;;;;;7.37;100.00;99291.66;5049313;28;20019;-96
2023/12/13 01:35:50;;;;;;;;;;;;;;;7.36;100.00;99282.13;5065447;28;19920;-96
2023/12/13 01:38:18;;;;;;;;;;;;;;;7.31;100.00;99286.00;5078976;28;19916;-96
2023/12/13 01:40:54;;;;;;;;;;;;;;;7.35;100.00;99286.56;5065388;28;20380;-96
2023/12/13 01:43:43;;;;;;;;;;;;;;;7.32;100.00;99290.31;5045960;28;19916;-96
2023/12/13 01:46:27;;;;;;;;;;;;;;;7.35;100.00;99306.75;5057380;28;19927;-90
2023/12/13 01:48:52;;;;;;;;;;;;;;;7.34;100.00;99316.44;5044145;28;19920;-88
2023/12/13 01:51:18;;;;;;;;;;;;;;;7.31;100.00;99330.69;5072985;28;19925;-96
2023/12/13 01:53:44;;;;;;;;;;;;;;;7.32;100.00;99337.63;5052312;28;19965;-96
2023/12/13 01:56:11;;;;;;;;;;;;;;;7.32;100.00;99348.16;5064210;28;20004;-96
2023/12/13 01:58:38;;;;;;;;;;;;;;;7.31;100.00;99345.66;5048849;28;19916;-96
2023/12/13 02:01:06;;;;;;;;;;;;;;;7.29;100.00;99340.53;5052815;28;19916;-90
2023/12/13 02:03:33;;;;;;;;;;;;;;;7.31;100.00;99351.72;5047815;28;19920;-91
2023/12/13 02:06:05;;;;;;;;;;;;;;;7.27;100.00;99349.56;5060556;28;19924;-96
2023/12/13 02:08:40;;;;;;;;;;;;;;;7.26;100.00;99347.91;5085354;28;19995;-96
2023/12/13 02:11:06;;;;;;;;;;;;;;;7.23;100.00;99356.09;5079783;28;19916;-96
2023/12/13 02:13:41;;;;;;;;;;;;;;;7.24;100.00;99369.09;5080273;28;19920;-95
2023/12/13 02:16:08;;;;;;;;;;;;;;;7.23;100.00;99364.78;5063307;28;19917;-95
2023/12/13 02:18:36;;;;;;;;;;;;;;;7.22;100.00;99372.81;5046111;28;20002;-96
2023/12/13 02:21:02;;;;;;;;;;;;;;;7.19;100.00;99377.44;5077158;28;20348;-96
2023/12/13 02:23:29;;;;;;;;;;;;;;;7.18;100.00;99385.47;5088939;28;19926;-96
2023/12/13 02:25:59;;;;;;;;;;;;;;;7.19;100.00;99392.34;5078392;28;19931;-96
2023/12/13 02:28:28;;;;;;;;;;;;;;;7.22;100.00;99407.81;5063218;28;19917;-96
2023/12/13 02:30:55;;;;;;;;;;;;;;;7.18;100.00;99417.81;5037554;28;19916;-90
2023/12/13 02:33:27;;;;;;;;;;;;;;;7.17;100.00;99415.31;5064031;28;19955;-91
2023/12/13 02:35:54;;;;;;;;;;;;;;;7.18;100.00;99423.06;5039134;28;19916;-96
2023/12/13 02:38:29;;;;;;;;;;;;;;;7.19;100.00;99429.16;5061960;28;19916;-96
2023/12/13 02:40:55;;;;;;;;;;;;;;;7.18;100.00;99430.13;5051531;28;19924;-96
2023/12/13 02:43:24;;;;;;;;;;;;;;;7.19;100.00;99442.28;5042601;28;19927;-96
2023/12/13 02:45:50;;;;;;;;;;;;;;;7.10;100.00;99438.75;5064160;28;19921;-96
2023/12/13 02:48:29;;;;;;;;;;;;;;;;;;;;;
2023/12/13 02:51:28;;;;;;;;;;;;;;;7.07;100.00;99454.81;5081603;28;19924;-96
2023/12/13 02:57:12;;;;;;;;;;;;;;;7.05;100.00;99464.63;5018006;28;19960;-96
2023/12/13 02:59:37;;;;;;;;;;;;;;;7.02;100.00;99471.03;5055741;28;19920;-96
2023/12/13 03:02:03;;;;;;;;;;;;;;;6.94;100.00;99448.06;5046647;28;19920;-96
2023/12/13 03:04:32;;;;;;;;;;;;;;;6.98;100.00;99471.44;5068462;28;20454;-96
2023/12/13 03:07:00;;;;;;;;;;;;;;;7.00;100.00;99477.38;5050767;28;19952;-96
2023/12/13 03:09:33;;;;;;;;;;;;;;;6.97;100.00;99473.25;5063344;28;19938;-96
2023/12/13 03:12:06;;;;;;;;;;;;;;;6.98;100.00;99488.03;5061303;28;20019;-96
2023/12/13 03:14:32;;;;;;;;;;;;;;;7.02;100.00;99486.78;5047130;28;20388;-96
2023/12/13 03:17:01;;;;;;;;;;;;;;;7.06;100.00;99489.94;5062753;28;19962;-96
2023/12/13 03:19:28;;;;;;;;;;;;;;;6.98;100.00;99493.28;5059478;28;19923;-96
2023/12/13 03:22:01;;;;;;;;;;;;;;;7.02;100.00;99502.56;5065920;28;19921;-96
2023/12/13 03:24:35;;;;;;;;;;;;;;;7.03;100.00;99524.38;5044578;28;19921;-96
2023/12/13 03:27:29;;;;;;;;;;;;;;;7.01;100.00;99511.38;5062235;28;19916;-96
2023/12/13 03:30:00;;;;;;;;;;;;;;;6.99;100.00;99523.81;5046041;28;19923;-96
2023/12/13 03:32:38;;;;;;;;;;;;;;;6.99;100.00;99526.47;5064930;28;19923;-96
2023/12/13 03:35:29;;;;;;;;;;;;;;;7.01;100.00;99524.53;5065932;28;19916;-96
2023/12/13 03:38:12;;;;;;;;;;;;;;;7.04;100.00;99540.00;5052515;28;19999;-96
2023/12/13 03:41:16;;;;;;;;;;;;;;;6.96;100.00;99534.63;5022309;28;19921;-96
2023/12/13 03:43:44;;;;;;;;;;;;;;;6.97;100.00;99527.59;5048891;28;19920;-96
2023/12/13 03:46:17;;;;;;;;;;;;;;;6.93;100.00;99533.13;5052445;28;19924;-96
2023/12/13 03:52:07;;;;;;;;;;;;;;;6.82;100.00;99549.88;5074534;28;19944;-96
2023/12/13 03:54:36;;;;;;;;;;;;;;;6.82;100.00;99565.66;5073678;28;19999;-96
2023/12/13 03:57:05;;;;;;;;;;;;;;;6.82;100.00;99564.81;5056661;28;19920;-96
2023/12/13 03:59:47;;;;;;;;;;;;;;;6.77;100.00;99551.28;5059183;28;19917;-96
2023/12/13 04:02:55;;;;;;;;;;;;;;;6.78;100.00;99569.53;5065523;28;19959;-96
2023/12/13 04:05:54;;;;;;;;;;;;;;;6.74;100.00;99577.81;5066701;28;19920;-96
2023/12/13 04:08:30;;;;;;;;;;;;;;;6.74;100.00;99576.03;5063606;28;19946;-96
2023/12/13 04:14:43;;;;;;;;;;;;;;;6.79;100.00;99588.72;5070741;28;19921;-96
2023/12/13 04:17:10;;;;;;;;;;;;;;;6.83;100.00;99601.44;5067481;28;19917;-96
2023/12/13 04:19:58;;;;;;;;;;;;;;;;;;;;;
2023/12/13 04:22:41;;;;;;;;;;;;;;;6.92;100.00;99601.56;5067045;28;19928;-96
2023/12/13 04:25:07;;;;;;;;;;;;;;;6.91;100.00;99611.25;5045207;28;19917;-96
2023/12/13 04:27:50;;;;;;;;;;;;;;;6.98;100.00;99618.56;5075052;28;20414;-93
2023/12/13 04:30:22;;;;;;;;;;;;;;;7.01;100.00;99613.03;5058327;28;19916;-91
2023/12/13 04:32:48;;;;;;;;;;;;;;;6.98;100.00;99623.81;5055895;28;19917;-96
2023/12/13 04:35:19;;;;;;;;;;;;;;;7.02;100.00;99619.94;5082362;28;19983;-96
2023/12/13 04:37:46;;;;;;;;;;;;;;;7.04;100.00;99628.53;5071889;28;19962;-96
2023/12/13 04:40:38;;;;;;;;;;;;;;;7.03;100.00;99627.69;5059193;28;20010;-96
2023/12/13 04:43:05;;;;;;;;;;;;;;;7.00;100.00;99625.34;5084459;28;20422;-96
2023/12/13 04:45:31;;;;;;;;;;;;;;;7.00;100.00;99627.97;5086491;28;19920;-96
2023/12/13 04:48:09;;;;;;;;;;;;;;;7.02;100.00;99640.97;5057187;28;19944;-96
2023/12/13 04:50:46;;;;;;;;;;;;;;;7.04;100.00;99641.66;5088753;28;19923;-96
2023/12/13 04:53:15;;;;;;;;;;;;;;;7.03;100.00;99640.84;5068175;28;19924;-96
2023/12/13 04:55:41;;;;;;;;;;;;;;;7.04;100.00;99650.38;5072743;28;19916;-96
2023/12/13 04:58:07;;;;;;;;;;;;;;;7.04;100.00;99649.56;5087617;28;20352;-96
2023/12/13 05:00:38;;;;;;;;;;;;;;;7.03;100.00;99632.94;5055317;28;20440;-96
2023/12/13 05:03:04;;;;;;;;;;;;;;;7.05;100.00;99657.28;5064504;28;19927;-96
2023/12/13 05:05:31;;;;;;;;;;;;;;;7.07;100.00;99655.34;5086927;28;19951;-96
2023/12/13 05:07:57;;;;;;;;;;;;;;;7.07;100.00;99657.16;5058324;28;19967;-96
2023/12/13 05:10:23;;;;;;;;;;;;;;;7.04;100.00;99667.94;5047140;28;19920;-96
2023/12/13 05:12:49;;;;;;;;;;;;;;;7.05;100.00;99675.69;5060941;28;20137;-96
2023/12/13 05:15:15;;;;;;;;;;;;;;;7.07;100.00;99667.66;5101147;28;19916;-96
2023/12/13 05:17:41;;;;;;;;;;;;;;;7.06;100.00;99681.75;5053491;28;19916;-96
2023/12/13 05:20:08;;;;;;;;;;;;;;;7.06;100.00;99689.63;5064946;28;20364;-96
2023/12/13 05:22:34;;;;;;;;;;;;;;;7.07;100.00;99684.25;5076227;28;19920;-96
2023/12/13 05:25:02;;;;;;;;;;;;;;;7.03;100.00;99690.75;5048010;28;19946;-96
2023/12/13 05:27:29;;;;;;;;;;;;;;;7.04;100.00;99699.47;5060357;28;19924;-90
2023/12/13 05:29:54;;;;;;;;;;;;;;;6.99;100.00;99702.50;5039391;28;19921;-90
2023/12/13 05:32:20;;;;;;;;;;;;;;;6.95;100.00;99701.13;5080335;28;20006;-96
2023/12/13 05:34:46;;;;;;;;;;;;;;;6.95;100.00;99711.63;5067047;28;19923;-96
2023/12/13 05:37:12;;;;;;;;;;;;;;;6.92;100.00;99717.16;5067128;28;19986;-96
2023/12/13 05:39:40;;;;;;;;;;;;;;;6.93;100.00;99718.81;5068439;28;19920;-96
2023/12/13 05:42:07;;;;;;;;;;;;;;;6.90;100.00;99725.19;5046376;28;19916;-96
2023/12/13 05:44:33;;;;;;;;;;;;;;;6.90;100.00;99719.94;5057446;28;20018;-96
2023/12/13 05:47:00;;;;;;;;;;;;;;;6.85;100.00;99729.22;5065721;28;19973;-96
2023/12/13 05:49:27;;;;;;;;;;;;;;;6.81;100.00;99744.41;5068589;28;19948;-96
2023/12/13 05:51:57;;;;;;;;;;;;;;;6.82;100.00;99732.91;5056600;28;19953;-96
2023/12/13 05:54:23;;;;;;;;;;;;;;;6.79;100.00;99739.28;5066140;28;19916;-96
2023/12/13 05:56:49;;;;;;;;;;;;;;;6.77;100.00;99743.84;5062873;28;19925;-94
2023/12/13 05:59:15;;;;;;;;;;;;;;;6.76;100.00;99747.44;5072841;28;20302;-90
2023/12/13 06:01:41;;;;;;;;;;;;;;;6.71;100.00;99757.53;5048477;28;19931;-96
2023/12/13 06:04:07;;;;;;;;;;;;;;;6.69;100.00;99749.78;5085764;28;19920;-96
2023/12/13 06:06:32;;;;;;;;;;;;;;;6.66;100.00;99754.47;5043523;28;20605;-92
2023/12/13 06:08:58;;;;;;;;;;;;;;;6.61;100.00;99769.81;5041606;28;19917;-92
2023/12/13 06:11:24;;;;;;;;;;;;;;;6.62;100.00;99767.06;5044238;28;19916;-96
2023/12/13 06:13:53;;;;;;;;;;;;;;;6.61;100.00;99772.44;5043424;28;19923;-96
2023/12/13 06:16:21;;;;;;;;;;;;;;;6.61;100.00;99785.56;5049827;28;20490;-96
2023/12/13 06:18:47;;;;;;;;;;;;;;;6.58;100.00;99795.38;5059742;28;19917;-89
2023/12/13 06:21:13;;;;;;;;;;;;;;;6.53;100.00;99794.94;5060316;28;19939;-96
2023/12/13 06:23:39;;;;;;;;;;;;;;;6.50;100.00;99800.47;5037664;28;19924;-96
2023/12/13 06:26:05;;;;;;;;;;;;;;;6.47;100.00;99798.09;5051074;28;19916;-96
2023/12/13 06:28:31;;;;;;;;;;;;;;;6.47;100.00;99813.84;5057735;28;19916;-96
2023/12/13 06:30:57;;;;;;;;;;;;;;;6.44;100.00;99799.22;5064057;28;19916;-96
2023/12/13 06:33:22;;;;;;;;;;;;;;;6.38;100.00;99812.88;5038784;28;19923;-96
2023/12/13 06:35:48;;;;;;;;;;;;;;;6.37;100.00;99808.56;5047793;28;19923;-96
2023/12/13 06:38:14;;;;;;;;;;;;;;;6.35;100.00;99817.53;5052454;28;19938;-95
2023/12/13 06:40:44;;;;;;;;;;;;;;;6.31;100.00;99828.31;5051000;28;20007;-96
2023/12/13 06:43:11;;;;;;;;;;;;;;;6.29;100.00;99830.22;5040581;28;20398;-96
2023/12/13 06:45:38;;;;;;;;;;;;;;;6.31;100.00;99836.19;5048956;28;19917;-96
2023/12/13 06:48:06;;;;;;;;;;;;;;;6.32;100.00;99844.91;5041445;28;19916;-96
2023/12/13 06:51:03;;;;;;;;;;;;;;;6.30;100.00;99845.03;5045422;28;19995;-96
2023/12/13 06:53:30;;;;;;;;;;;;;;;6.31;100.00;99851.09;5043644;28;19923;-96
2023/12/13 06:55:57;;;;;;;;;;;;;;;6.30;100.00;99852.06;5077682;28;19916;-96
2023/12/13 06:58:25;;;;;;;;;;;;;;;6.28;100.00;99851.34;5069629;28;19916;-96
2023/12/13 07:01:20;;;;;;;;;;;;;;;6.30;100.00;99854.69;5076683;28;19926;-96
2023/12/13 07:03:46;;;;;;;;;;;;;;;6.25;100.00;99856.88;5061964;28;19924;-96
2023/12/13 07:06:16;;;;;;;;;;;;;;;6.21;100.00;99851.06;5061628;28;20438;-96
2023/12/13 07:08:42;;;;;;;;;;;;;;;6.18;100.00;99846.09;5045426;28;20023;-96
2023/12/13 07:11:08;;;;;;;;;;;;;;;6.15;100.00;99856.81;5044032;28;19994;-96
2023/12/13 07:13:34;;;;;;;;;;;;;;;6.13;100.00;99845.63;5037573;28;19938;-96
2023/12/13 07:16:00;;;;;;;;;;;;;;;6.15;100.00;99851.56;5030897;28;19943;-96
2023/12/13 07:18:26;;;;;;;;;;;;;;;6.13;100.00;99849.06;5079955;28;19923;-96
2023/12/13 07:20:56;;;;;;;;;;;;;;;6.10;100.00;99861.63;5042398;28;19920;-96
2023/12/13 07:23:25;;;;;;;;;;;;;;;6.09;100.00;99858.16;5067496;28;19967;-96
2023/12/13 07:25:51;;;;;;;;;;;;;;;6.11;100.00;99860.66;5044436;28;19923;-96
2023/12/13 07:28:16;;;;;;;;;;;;;;;6.08;100.00;99870.44;5062924;28;19916;-96
2023/12/13 07:30:42;;;;;;;;;;;;;;;6.09;100.00;99879.16;5044831;28;19927;-96
2023/12/13 07:33:08;;;;;;;;;;;;;;;6.08;100.00;99886.19;5045185;28;19919;-96
2023/12/13 07:35:34;;;;;;;;;;;;;;;6.04;100.00;99883.94;5045994;28;19924;-96
2023/12/13 07:38:00;;;;;;;;;;;;;;;6.04;100.00;99890.03;5047519;28;20042;-96
2023/12/13 07:40:27;;;;;;;;;;;;;;;6.08;100.00;99890.63;5055230;28;19916;-95
2023/12/13 07:42:55;;;;;;;;;;;;;;;6.06;100.00;99888.13;5102179;22;19956;-91
2023/12/13 07:45:25;;;;;;;;;;;;;;;6.04;100.00;99892.66;5025107;28;19925;-92
2023/12/13 07:47:54;;;;;;;;;;;;;;;6.05;100.00;99896.94;5053987;22;19959;-93
2023/12/13 07:50:31;;;;;;;;;;;;;;;6.05;100.00;99898.75;5039648;28;19917;-95
2023/12/13 07:53:04;;;;;;;;;;;;;;;6.02;100.00;99904.22;5043495;28;19925;-96
2023/12/13 07:55:56;;;;;;;;;;;;;;;6.05;100.00;99902.19;5048545;28;19921;-93
2023/12/13 07:58:23;;;;;;;;;;;;;;;6.05;100.00;99907.44;5023699;28;19917;-93
2023/12/13 08:00:56;;;;;;;;;;;;;;;6.02;100.00;99926.03;5029335;28;19927;-93
2023/12/13 08:03:22;;;;;;;;;;;;;;;6.02;100.00;99926.03;5025379;28;19920;-91
2023/12/13 08:05:48;;;;;;;;;;;;;;;6.01;100.00;99934.88;5023172;28;19916;-92
2023/12/13 08:08:16;;;;;;;;;;;;;;;6.00;100.00;99941.09;5037835;28;19999;-92
2023/12/13 08:10:48;;;;;;;;;;;;;;;5.97;100.00;99951.84;5044091;28;19913;-95
2023/12/13 08:13:39;;;;;;;;;;;;;;;5.99;100.00;99952.53;5042267;28;19923;-95
2023/12/13 08:16:16;;;;;;;;;;;;;;;5.96;100.00;99964.09;5067421;28;19924;-93
2023/12/13 08:18:42;;;;;;;;;;;;;;;5.97;100.00;99964.94;5054886;28;19925;-93
2023/12/13 08:21:11;;;;;;;;;;;;;;;5.96;100.00;99964.09;5032634;28;19916;-95
2023/12/13 08:24:02;;;;;;;;;;;;;;;5.96;100.00;99973.75;5058970;28;19927;-95
2023/12/13 08:30:35;;;;;;;;;;;;;;;5.91;100.00;99994.31;5065490;28;19967;-91
2023/12/13 08:33:02;;;;;;;;;;;;;;;5.90;100.00;99990.00;5018531;28;19956;-92
2023/12/13 08:35:28;;;;;;;;;;;;;;;5.88;100.00;100010.28;5045218;28;20292;-93
2023/12/13 08:37:56;;;;;;;;;;;;;;;5.87;100.00;100019.09;5024660;28;20632;-92
2023/12/13 08:40:22;;;;;;;;;;;;;;;5.86;100.00;100020.88;5023821;28;19916;-90
2023/12/13 08:42:47;;;;;;;;;;;;;;;5.83;100.00;100040.34;5019870;28;20442;-91
2023/12/13 08:45:16;;;;;;;;;;;;;;;5.84;100.00;100038.56;5023951;28;20011;-92
2023/12/13 08:47:42;;;;;;;;;;;;;;;5.82;100.00;100049.19;5016667;28;19963;-92
2023/12/13 08:50:14;;;;;;;;;;;;;;;5.82;100.00;100048.34;5042979;28;20345;-93
2023/12/13 08:52:54;;;;;;;;;;;;;;;5.82;100.00;100051.81;5048245;28;20372;-96
2023/12/13 08:55:39;;;;;;;;;;;;;;;5.81;100.00;100052.72;5061648;28;19931;-92
2023/12/13 08:58:28;;;;;;;;;;;;;;;5.79;100.00;100053.81;5019923;28;19916;-94
2023/12/13 09:00:54;;;;;;;;;;;;;;;5.81;100.00;100059.78;5021434;28;19959;-91
2023/12/13 09:03:20;;;;;;;;;;;;;;;5.80;100.00;100066.81;5020629;28;19963;-92
2023/12/13 09:05:51;;;;;;;;;;;;;;;5.80;100.00;100073.84;5020009;28;19975;-93
2023/12/13 09:08:26;;;;;;;;;;;;;;;5.81;100.00;100076.34;5040155;28;19969;-93
2023/12/13 09:10:55;;;;;;;;;;;;;;;5.81;100.00;100081.59;5070550;22;19947;-96
2023/12/13 09:13:21;;;;;;;;;;;;;;;5.83;100.00;100084.09;5062297;28;19920;-96
2023/12/13 09:15:50;;;;;;;;;;;;;;;5.82;100.00;100087.69;5054139;28;19901;-96
2023/12/13 09:18:20;;;;;;;;;;;;;;;5.86;100.00;100090.91;5430398;22;19987;-93
2023/12/13 09:20:49;;;;;;;;;;;;;;;5.89;100.00;100095.91;5092102;23;19932;-96
2023/12/13 09:23:22;;;;;;;;;;;;;;;5.91;100.00;100101.88;5054130;28;19921;-96
2023/12/13 09:28:55;;;;;;;;;;;;;;;5.95;100.00;100111.16;5086931;28;19939;-92
2023/12/13 09:31:25;;;;;;;;;;;;;;;5.97;100.00;100117.13;5042349;28;19924;-93
2023/12/13 09:33:54;;;;;;;;;;;;;;;5.99;100.00;100112.56;5063701;28;19955;-92
2023/12/13 09:36:33;;;;;;;;;;;;;;;6.02;100.00;100117.56;5067051;28;20014;-92
2023/12/13 09:39:03;;;;;;;;;;;;;;;6.07;100.00;100127.72;5089581;28;19916;-92
2023/12/13 09:41:54;;;;;;;;;;;;;;;6.15;100.00;100138.44;5106075;22;19951;-96
2023/12/13 09:44:29;;;;;;;;;;;;;;;6.23;100.00;100144.88;5095903;28;20010;-96
2023/12/13 09:47:00;;;;;;;;;;;;;;;6.29;100.00;100153.06;5180161;22;19988;-96
2023/12/13 09:49:30;;;;;;;;;;;;;;;6.29;100.00;100155.69;5066013;28;19964;-96
2023/12/13 09:51:59;;;;;;;;;;;;;;;6.30;100.00;100157.38;5035393;28;19917;-96
2023/12/13 09:54:25;;;;;;;;;;;;;;;6.36;100.00;100163.91;5063208;28;19924;-96
2023/12/13 09:56:51;;;;;;;;;;;;;;;6.43;100.00;100159.81;5052695;28;19952;-96
2023/12/13 09:59:18;;;;;;;;;;;;;;;6.50;100.00;100148.84;5031402;28;19917;-96
2023/12/13 10:01:44;;;;;;;;;;;;;;;6.50;100.00;100160.16;5032051;28;19939;-96
2023/12/13 10:04:10;;;;;;;;;;;;;;;6.56;100.00;100161.47;5042521;28;19920;-96
2023/12/13 10:06:36;;;;;;;;;;;;;;;6.62;100.00;100160.97;5021606;28;20358;-96
2023/12/13 10:09:03;;;;;;;;;;;;;;;6.68;100.00;100168.34;5025225;28;19924;-96
2023/12/13 10:11:30;;;;;;;;;;;;;;;6.77;100.00;100163.31;5042489;28;19916;-96
2023/12/13 10:13:56;;;;;;;;;;;;;;;6.83;100.00;100154.91;5031668;28;19920;-96
2023/12/13 10:16:22;;;;;;;;;;;;;;;6.89;100.00;100161.44;5028041;28;20385;-96
2023/12/13 10:18:49;;;;;;;;;;;;;;;6.89;100.00;100164.06;5029669;28;19952;-96
2023/12/13 10:21:15;;;;;;;;;;;;;;;6.89;100.00;100166.69;5043196;28;19916;-96
2023/12/13 10:23:41;;;;;;;;;;;;;;;6.98;100.00;100170.34;5034722;28;19921;-96
2023/12/13 10:26:08;;;;;;;;;;;;;;;7.03;100.00;100176.91;5024362;28;19924;-96
2023/12/13 10:28:35;;;;;;;;;;;;;;;7.06;100.00;100183.69;5023597;28;19917;-96
2023/12/13 10:31:01;;;;;;;;;;;;;;;7.12;100.00;100187.63;5042810;28;19938;-96
2023/12/13 10:33:28;;;;;;;;;;;;;;;7.17;100.00;100193.31;5046093;28;19948;-96
2023/12/13 10:35:54;;;;;;;;;;;;;;;7.23;100.00;100197.22;5037331;28;19917;-96
2023/12/13 10:38:23;;;;;;;;;;;;;;;7.26;100.00;100199.59;5016179;28;19917;-96
2023/12/13 10:40:49;;;;;;;;;;;;;;;7.25;100.00;100190.88;5036810;28;20281;-96
2023/12/13 10:43:15;;;;;;;;;;;;;;;7.28;100.00;100200.28;5030848;28;19921;-96
2023/12/13 10:45:55;;;;;;;;;;;;;;;7.35;100.00;100214.59;5024946;28;19962;-96
2023/12/13 10:48:23;;;;;;;;;;;;;;;7.43;100.00;100213.94;5022356;28;19920;-96
2023/12/13 10:50:50;;;;;;;;;;;;;;;7.49;100.00;100213.44;5021102;28;19928;-96
2023/12/13 10:53:17;;;;;;;;;;;;;;;7.53;100.00;100216.66;5020716;28;19917;-96
2023/12/13 10:55:43;;;;;;;;;;;;;;;7.59;100.00;100228.44;5039257;28;19917;-96
2023/12/13 10:58:09;;;;;;;;;;;;;;;7.63;100.00;100228.03;5040161;28;19916;-96
2023/12/13 11:00:36;;;;;;;;;;;;;;;7.67;100.00;100224.19;5035725;28;20047;-96
2023/12/13 11:03:13;;;;;;;;;;;;;;;7.71;100.00;100226.56;5020529;28;20380;-96
2023/12/13 11:05:39;;;;;;;;;;;;;;;7.78;100.00;100225.91;5053620;28;19925;-96
2023/12/13 11:08:16;;;;;;;;;;;;;;;7.80;100.00;100231.03;5022814;28;19916;-96
2023/12/13 11:10:54;;;;;;;;;;;;;;;7.82;100.00;100227.31;5041378;28;19976;-95
2023/12/13 11:13:23;;;;;;;;;;;;;;;7.87;100.00;100234.00;5042386;28;20028;-96
2023/12/13 11:15:49;;;;;;;;;;;;;;;7.87;100.00;100237.44;5036976;28;19917;-96
2023/12/13 11:18:15;;;;;;;;;;;;;;;7.90;100.00;100238.97;5040372;28;19920;-96
2023/12/13 11:20:46;;;;;;;;;;;;;;;7.91;100.00;100252.00;5063025;28;19960;-96
2023/12/13 11:23:13;;;;;;;;;;;;;;;7.94;100.00;100257.00;5022014;28;19929;-96
2023/12/13 11:25:39;;;;;;;;;;;;;;;7.99;100.00;100267.13;5036018;28;19971;-96
2023/12/13 11:28:05;;;;;;;;;;;;;;;7.93;100.00;100272.94;5019866;28;20353;-96
2023/12/13 11:30:32;;;;;;;;;;;;;;;7.94;100.00;100264.91;5027833;28;20357;-96
2023/12/13 11:33:22;;;;;;;;;;;;;;;7.96;100.00;100271.81;5073534;28;19966;-96
2023/12/13 11:35:51;;;;;;;;;;;;;;;7.99;100.00;100277.66;5028781;28;19921;-96
2023/12/13 11:38:17;;;;;;;;;;;;;;;8.00;100.00;100281.97;5028250;28;19959;-96
2023/12/13 11:40:43;;;;;;;;;;;;;;;8.03;100.00;100286.13;5023523;28;19916;-96
2023/12/13 11:43:10;;;;;;;;;;;;;;;8.01;100.00;100278.34;5040987;28;19920;-96
2023/12/13 11:45:36;;;;;;;;;;;;;;;8.02;100.00;100282.66;5057986;28;19964;-96
2023/12/13 11:48:01;;;;;;;;;;;;;;;7.99;100.00;100272.41;5024069;28;19955;-96
2023/12/13 11:50:27;;;;;;;;;;;;;;;8.04;100.00;100277.28;5034135;28;19909;-96
2023/12/13 11:52:54;;;;;;;;;;;;;;;8.01;100.00;100283.63;5043331;28;19997;-96
2023/12/13 11:55:20;;;;;;;;;;;;;;;7.99;100.00;100282.94;5043447;28;19917;-96
2023/12/13 11:57:53;;;;;;;;;;;;;;;8.03;100.00;100283.47;5047580;28;19917;-96
2023/12/13 12:00:19;;;;;;;;;;;;;;;8.04;100.00;100285.97;5032465;28;19982;-96
2023/12/13 12:02:46;;;;;;;;;;;;;;;8.10;100.00;100291.69;5036582;28;19909;-96
2023/12/13 12:05:38;;;;;;;;;;;;;;;8.10;100.00;100291.69;5039854;28;19921;-96
2023/12/13 12:08:11;;;;;;;;;;;;;;;8.12;100.00;100293.22;5050379;28;19968;-96
2023/12/13 12:11:03;;;;;;;;;;;;;;;8.12;100.00;100297.66;5042244;28;19920;-96
2023/12/13 12:13:29;;;;;;;;;;;;;;;8.18;100.00;100300.63;5050552;28;19928;-96
2023/12/13 12:15:55;;;;;;;;;;;;;;;8.26;100.00;100301.75;5038901;28;19921;-96
2023/12/13 12:18:20;;;;;;;;;;;;;;;8.30;100.00;100303.97;5034525;28;20251;-96
2023/12/13 12:20:46;;;;;;;;;;;;;;;8.37;100.00;100304.28;5045792;28;20395;-95
2023/12/13 12:23:12;;;;;;;;;;;;;;;8.42;100.00;100301.25;5020046;28;19967;-96
2023/12/13 12:25:39;;;;;;;;;;;;;;;8.44;100.00;100304.59;5020700;28;19936;-96
2023/12/13 12:28:08;;;;;;;;;;;;;;;8.49;100.00;100315.53;5054409;28;19917;-96
2023/12/13 12:30:34;;;;;;;;;;;;;;;8.53;100.00;100313.47;5045323;28;19917;-96
2023/12/13 12:32:59;;;;;;;;;;;;;;;8.53;100.00;100316.97;5011742;28;20051;-96
2023/12/13 12:35:25;;;;;;;;;;;;;;;8.44;100.00;100321.22;5069538;28;20007;-96
2023/12/13 12:37:50;;;;;;;;;;;;;;;8.43;100.00;100306.38;5035379;28;19917;-96
2023/12/13 12:40:17;;;;;;;;;;;;;;;8.34;100.00;100315.09;5034025;28;19917;-96
2023/12/13 12:42:45;;;;;;;;;;;;;;;8.39;100.00;100312.06;5036099;28;19924;-96
2023/12/13 12:45:11;;;;;;;;;;;;;;;8.40;100.00;100316.34;5023731;28;19917;-96
2023/12/13 12:47:36;;;;;;;;;;;;;;;8.32;100.00;100319.63;5033395;28;19928;-96
2023/12/13 12:50:02;;;;;;;;;;;;;;;8.28;100.00;100321.69;5023759;28;19925;-96
2023/12/13 12:52:28;;;;;;;;;;;;;;;8.27;100.00;100325.31;5017044;28;19917;-91
2023/12/13 12:54:54;;;;;;;;;;;;;;;8.32;100.00;100327.53;5032046;28;20428;-90
2023/12/13 12:57:20;;;;;;;;;;;;;;;8.31;100.00;100318.00;5016106;28;19917;-90
2023/12/13 12:59:50;;;;;;;;;;;;;;;8.32;100.00;100315.22;5033967;28;19917;-90
2023/12/13 13:02:16;;;;;;;;;;;;;;;8.32;100.00;100303.84;5024883;28;19921;-96
2023/12/13 13:04:42;;;;;;;;;;;;;;;8.35;100.00;100306.22;5023495;28;19917;-96
2023/12/13 13:07:07;;;;;;;;;;;;;;;8.36;100.00;100310.50;5028442;28;20410;-89
2023/12/13 13:09:34;;;;;;;;;;;;;;;8.37;100.00;100314.81;5032327;28;19999;-90
2023/12/13 13:12:02;;;;;;;;;;;;;;;8.35;100.00;100314.09;5033797;28;20448;-96
2023/12/13 13:14:28;;;;;;;;;;;;;;;8.26;100.00;100310.47;5052373;28;19999;-96
2023/12/13 13:16:55;;;;;;;;;;;;;;;8.19;100.00;100307.53;5045012;28;19975;-96
2023/12/13 13:19:21;;;;;;;;;;;;;;;8.09;100.00;100314.53;5024908;28;19917;-96
2023/12/13 13:21:48;;;;;;;;;;;;;;;8.07;100.00;100308.59;5025292;28;19920;-96